TimeEDT,TemperatureF,Dew PointF,Humidity,Sea Level PressureIn,VisibilityMPH,Wind Direction,Wind SpeedMPH,Gust SpeedMPH,PrecipitationIn,Events,Conditions,WindDirDegrees,DateUTC
12:07 AM,51.8,41.0,67,30.19,10.0,SSE,4.6,-,N/A,,Clear,160,2012-10-12 04:07:00
12:29 AM,53.6,42.8,67,30.18,10.0,Calm,Calm,-,N/A,,Clear,0,2012-10-12 04:29:00
12:50 AM,53.6,42.8,67,30.18,10.0,SSW,4.6,-,N/A,,Clear,200,2012-10-12 04:50:00
1:11 AM,55.4,42.8,63,30.18,10.0,SSW,5.8,-,N/A,,Clear,200,2012-10-12 05:11:00
1:33 AM,55.4,42.8,63,30.17,10.0,SSW,5.8,-,N/A,,Clear,200,2012-10-12 05:33:00
1:54 AM,55.4,44.6,67,30.17,10.0,SSW,8.1,-,N/A,,Clear,210,2012-10-12 05:54:00
2:15 AM,55.4,44.6,67,30.16,10.0,SSW,6.9,-,N/A,,Clear,210,2012-10-12 06:15:00
2:37 AM,55.4,44.6,67,30.16,10.0,SSW,6.9,-,N/A,,Clear,210,2012-10-12 06:37:00
2:58 AM,55.4,44.6,67,30.15,10.0,SW,8.1,-,N/A,,Clear,220,2012-10-12 06:58:00
3:19 AM,55.4,44.6,67,30.15,10.0,SW,9.2,-,N/A,,Clear,230,2012-10-12 07:19:00
3:41 AM,53.6,44.6,72,30.16,10.0,SW,8.1,-,N/A,,Clear,230,2012-10-12 07:41:00
4:02 AM,53.6,44.6,72,30.16,10.0,SW,5.8,-,N/A,,Clear,220,2012-10-12 08:02:00
4:23 AM,51.8,44.6,76,30.15,10.0,SSW,4.6,-,N/A,,Clear,210,2012-10-12 08:23:00
4:45 AM,51.8,44.6,76,30.15,10.0,SW,4.6,-,N/A,,Clear,220,2012-10-12 08:45:00
5:49 AM,51.8,46.4,82,30.15,10.0,WSW,5.8,-,N/A,,Clear,250,2012-10-12 09:49:00
6:10 AM,53.6,46.4,77,30.15,10.0,WSW,5.8,-,N/A,,Clear,250,2012-10-12 10:10:00
6:31 AM,51.8,44.6,76,30.15,10.0,West,5.8,-,N/A,,Clear,260,2012-10-12 10:31:00
6:52 AM,51.8,44.6,76,30.15,10.0,Calm,Calm,-,N/A,,Clear,0,2012-10-12 10:52:00
7:14 AM,50.0,44.6,82,30.14,10.0,Calm,Calm,-,N/A,,Clear,0,2012-10-12 11:14:00
7:35 AM,50.0,44.6,82,30.15,7.0,Calm,Calm,-,N/A,,Clear,0,2012-10-12 11:35:00
7:56 AM,51.8,44.6,76,30.16,10.0,West,5.8,-,N/A,,Clear,260,2012-10-12 11:56:00
8:18 AM,53.6,42.8,67,30.17,10.0,West,3.5,-,N/A,,Clear,280,2012-10-12 12:18:00
8:39 AM,55.4,41.0,58,30.18,10.0,West,6.9,-,N/A,,Clear,270,2012-10-12 12:39:00
9:00 AM,57.2,37.4,48,30.18,10.0,West,5.8,-,N/A,,Clear,270,2012-10-12 13:00:00
9:21 AM,57.2,41.0,55,30.18,10.0,West,8.1,-,N/A,,Clear,260,2012-10-12 13:21:00
9:43 AM,59.0,39.2,48,30.18,10.0,West,9.2,-,N/A,,Clear,280,2012-10-12 13:43:00
10:04 AM,59.0,35.6,42,30.19,10.0,West,12.7,17.3,N/A,,Clear,280,2012-10-12 14:04:00
10:25 AM,60.8,35.6,39,30.19,10.0,WNW,12.7,-,N/A,,Clear,300,2012-10-12 14:25:00
10:37 AM,60.8,35.6,39,30.20,10.0,WNW,13.8,18.4,N/A,,Clear,290,2012-10-12 14:37:00